createdAt,value
2022-09-20T00:02:05.545Z,84.10
2022-09-20T00:05:08.157Z,83.80
2022-09-20T00:08:14.443Z,83.90
2022-09-20T00:11:30.968Z,83.50
2022-09-20T00:14:33.284Z,83.50
2022-09-20T00:17:35.267Z,83.50
2022-09-20T00:20:37.898Z,83.40
2022-09-20T00:23:40.749Z,83.60
2022-09-20T00:26:42.710Z,83.80
2022-09-20T00:29:44.731Z,84.60
2022-09-20T00:32:48.968Z,84.60
2022-09-20T00:35:51.696Z,84.00
2022-09-20T00:38:57.432Z,83.80
2022-09-20T00:41:59.567Z,83.50
2022-09-20T00:45:17.714Z,83.20
2022-09-20T00:48:27.960Z,83.90
2022-09-20T00:51:34.937Z,83.80
2022-09-20T00:54:37.184Z,84.00
2022-09-20T00:57:39.896Z,84.00
2022-09-20T01:00:44.494Z,83.50
2022-09-20T01:03:47.954Z,83.30
2022-09-20T01:06:53.528Z,83.20
2022-09-20T01:09:55.913Z,83.60
2022-09-20T01:12:57.951Z,83.60
2022-09-20T01:16:01.089Z,83.60
2022-09-20T01:19:13.511Z,83.40
2022-09-20T01:22:34.522Z,82.90
2022-09-20T01:26:10.097Z,83.50
2022-09-20T01:29:49.713Z,83.30
2022-09-20T01:33:18.264Z,83.20
2022-09-20T01:36:51.191Z,82.50
2022-09-20T01:40:26.377Z,83.20
2022-09-20T01:44:12.871Z,82.90
2022-09-20T01:47:25.060Z,83.40
2022-09-20T01:50:50.104Z,82.90
2022-09-20T01:54:23.001Z,83.10
2022-09-20T01:57:39.676Z,83.10
2022-09-20T02:01:04.423Z,82.50
2022-09-20T02:04:27.774Z,82.40
2022-09-20T02:07:48.411Z,82.80
2022-09-20T02:10:50.248Z,82.40
2022-09-20T02:14:12.964Z,82.40
2022-09-20T02:17:21.583Z,82.90
2022-09-20T02:21:17.620Z,82.60
2022-09-20T02:24:43.959Z,82.30
2022-09-20T02:28:03.969Z,82.10
2022-09-20T02:31:32.063Z,81.80
2022-09-20T02:34:42.891Z,82.20
2022-09-20T02:37:59.911Z,82.20
2022-09-20T02:41:23.577Z,81.50
2022-09-20T02:44:46.439Z,81.90
2022-09-20T02:47:53.909Z,81.90
2022-09-20T02:51:41.117Z,81.40
2022-09-20T02:55:00.595Z,81.40
2022-09-20T02:58:30.871Z,81.40
2022-09-20T03:02:11.839Z,81.50
2022-09-20T03:05:26.212Z,81.60
2022-09-20T03:08:46.922Z,81.20
2022-09-20T03:12:12.914Z,82.70
2022-09-20T03:15:40.786Z,82.20
2022-09-20T03:19:10.627Z,82.20
2022-09-20T03:22:36.434Z,82.00
2022-09-20T03:25:47.412Z,82.10
2022-09-20T03:29:02.166Z,82.20
2022-09-20T03:32:16.249Z,82.40
2022-09-20T03:35:21.368Z,82.40
2022-09-20T03:38:58.989Z,82.30
2022-09-20T03:45:44.760Z,82.90
2022-09-20T03:49:16.009Z,83.10
2022-09-20T03:52:29.187Z,82.80
2022-09-20T03:55:49.377Z,83.30
2022-09-20T03:59:20.315Z,83.30
2022-09-20T04:02:47.969Z,83.30
2022-09-20T04:06:17.013Z,83.50
2022-09-20T04:09:37.521Z,83.30
2022-09-20T04:13:01.901Z,83.30
2022-09-20T04:16:10.243Z,83.40
2022-09-20T04:19:35.295Z,83.60
2022-09-20T04:22:37.470Z,83.50
2022-09-20T04:25:49.421Z,82.90
2022-09-20T04:29:09.711Z,83.20
2022-09-20T04:32:33.492Z,83.20
2022-09-20T04:36:00.990Z,82.90
2022-09-20T04:39:07.123Z,83.00
2022-09-20T04:42:49.406Z,83.30
2022-09-20T04:46:29.135Z,83.50
2022-09-20T04:49:42.998Z,82.90
2022-09-20T04:53:33.415Z,82.70
2022-09-20T04:56:38.245Z,82.30
2022-09-20T05:00:11.560Z,83.00
2022-09-20T05:03:34.881Z,83.10
2022-09-20T05:07:01.824Z,82.70
2022-09-20T05:10:38.764Z,82.70
2022-09-20T05:14:03.840Z,82.70
2022-09-20T05:17:40.009Z,82.40
2022-09-20T05:20:52.345Z,82.40
2022-09-20T05:24:25.283Z,82.40
2022-09-20T05:27:45.186Z,82.70
2022-09-20T05:30:57.822Z,82.60
2022-09-20T05:34:18.969Z,82.40
2022-09-20T05:37:42.540Z,82.20
2022-09-20T05:40:59.469Z,81.90
2022-09-20T05:44:29.230Z,82.20
2022-09-20T05:47:55.217Z,81.50
2022-09-20T05:51:14.031Z,81.30
2022-09-20T05:54:34.603Z,81.00
2022-09-20T05:57:42.253Z,81.20
2022-09-20T06:01:03.755Z,80.40
2022-09-20T06:04:31.140Z,80.50
2022-09-20T06:08:04.147Z,81.10
2022-09-20T06:11:26.903Z,80.50
2022-09-20T06:14:49.006Z,80.20
2022-09-20T06:18:29.442Z,80.00
2022-09-20T06:21:44.546Z,79.50
2022-09-20T06:25:00.032Z,79.10
2022-09-20T06:28:23.904Z,79.60
2022-09-20T06:31:26.909Z,79.80
2022-09-20T06:34:29.471Z,79.90
2022-09-20T06:37:47.622Z,80.30
2022-09-20T06:40:51.359Z,80.20
2022-09-20T06:43:53.207Z,79.20
2022-09-20T06:46:55.199Z,80.40
2022-09-20T06:49:57.045Z,79.40
2022-09-20T06:52:58.935Z,79.10
2022-09-20T06:56:01.947Z,77.60
2022-09-20T06:59:05.075Z,76.20
2022-09-20T07:02:07.066Z,75.50
2022-09-20T07:05:15.073Z,75.50
2022-09-20T07:08:17.405Z,75.50
2022-09-20T07:11:19.289Z,76.40
2022-09-20T07:14:22.406Z,76.00
2022-09-20T07:17:24.305Z,76.60
2022-09-20T07:20:27.063Z,76.70
2022-09-20T07:23:30.099Z,77.00
2022-09-20T07:26:32.546Z,75.60
2022-09-20T07:29:36.940Z,74.70
2022-09-20T07:32:38.863Z,72.20
2022-09-20T07:35:40.694Z,68.00
2022-09-20T07:38:43.591Z,66.20
2022-09-20T07:41:45.595Z,63.10
2022-09-20T07:44:47.586Z,65.30
2022-09-20T07:47:49.416Z,67.10
2022-09-20T07:50:56.606Z,68.00
2022-09-20T07:53:58.533Z,67.80
2022-09-20T07:57:00.354Z,64.40
2022-09-20T08:00:02.795Z,66.80
2022-09-20T08:03:14.298Z,65.70
2022-09-20T08:06:16.234Z,65.40
2022-09-20T08:09:18.065Z,65.10
2022-09-20T08:15:42.294Z,65.20
2022-09-20T08:18:52.185Z,67.40
2022-09-20T08:21:54.146Z,66.40
2022-09-20T08:24:55.965Z,65.80
2022-09-20T08:27:57.897Z,64.30
2022-09-20T08:31:07.474Z,60.70
2022-09-20T08:34:13.334Z,56.70
2022-09-20T08:37:15.155Z,57.20
2022-09-20T08:40:17.185Z,54.90
2022-09-20T08:43:22.276Z,58.40
2022-09-20T08:46:29.176Z,56.20
2022-09-20T08:49:32.199Z,56.70
2022-09-20T08:52:37.469Z,55.80
2022-09-20T08:55:40.632Z,52.80
2022-09-20T08:58:42.964Z,51.00
2022-09-20T09:01:44.854Z,52.60
2022-09-20T09:04:48.632Z,50.50
2022-09-20T09:07:50.514Z,47.00
2022-09-20T09:14:13.802Z,44.70
2022-09-20T09:17:18.660Z,46.80
2022-09-20T09:20:23.116Z,45.30
2022-09-20T09:23:27.556Z,44.20
2022-09-20T09:26:39.203Z,45.10
2022-09-20T09:29:51.907Z,44.80
2022-09-20T09:33:22.603Z,43.90
2022-09-20T09:36:26.091Z,43.70
2022-09-20T09:39:29.478Z,43.90
2022-09-20T09:42:31.538Z,43.10
2022-09-20T09:45:38.452Z,44.20
2022-09-20T09:48:40.611Z,45.20
2022-09-20T09:51:59.684Z,42.80
2022-09-20T09:55:05.835Z,46.60
2022-09-20T09:58:25.184Z,46.80
2022-09-20T10:01:50.884Z,43.30
2022-09-20T10:05:19.052Z,44.00
2022-09-20T10:08:49.145Z,45.80
2022-09-20T10:12:03.399Z,47.30
2022-09-20T10:15:23.983Z,46.50
2022-09-20T10:18:35.072Z,46.00
2022-09-20T10:22:09.358Z,50.00
2022-09-20T10:25:41.351Z,49.30
2022-09-20T10:29:13.799Z,50.70
2022-09-20T10:32:18.527Z,52.30
2022-09-20T10:35:35.907Z,53.20
2022-09-20T10:38:59.228Z,52.10
2022-09-20T10:42:23.215Z,56.60
2022-09-20T10:46:20.929Z,49.00
2022-09-20T10:49:41.139Z,43.60
2022-09-20T11:03:58.685Z,48.30
2022-09-20T11:07:30.584Z,50.30
2022-09-20T11:10:38.185Z,52.40
2022-09-20T11:14:05.072Z,53.10
2022-09-20T11:17:17.591Z,51.80
2022-09-20T11:20:27.909Z,54.90
2022-09-20T11:23:57.426Z,50.60
2022-09-20T11:27:18.844Z,53.40
2022-09-20T11:30:22.829Z,55.70
2022-09-20T11:33:43.200Z,52.30
2022-09-20T11:37:03.391Z,54.90
2022-09-20T11:40:27.434Z,51.70
2022-09-20T11:43:30.383Z,49.50
2022-09-20T11:46:38.633Z,53.50
2022-09-20T11:50:04.567Z,48.40
2022-09-20T11:53:27.014Z,50.90
2022-09-20T11:56:33.189Z,52.10
2022-09-20T11:59:42.367Z,49.40
2022-09-20T12:02:51.533Z,43.20
2022-09-20T12:06:01.753Z,43.40
2022-09-20T12:09:07.530Z,42.70
2022-09-20T12:12:31.130Z,44.00
2022-09-20T12:15:40.085Z,45.70
2022-09-20T12:18:48.071Z,44.70
2022-09-20T12:21:59.077Z,47.00
2022-09-20T12:25:38.209Z,47.30
2022-09-20T12:28:42.853Z,47.30
2022-09-20T12:31:49.449Z,45.30
2022-09-20T12:34:51.367Z,48.10
2022-09-20T12:37:53.302Z,47.30
2022-09-20T12:41:27.891Z,48.80
2022-09-20T12:44:53.388Z,49.00
2022-09-20T12:47:56.433Z,50.30
2022-09-20T12:51:18.062Z,51.00
2022-09-20T12:54:20.029Z,49.60
2022-09-20T12:57:31.863Z,48.70
2022-09-20T13:00:36.003Z,49.60
2022-09-20T13:03:42.304Z,48.80
2022-09-20T13:06:44.527Z,46.60
2022-09-20T13:09:47.711Z,49.20
2022-09-20T13:12:54.675Z,45.70
2022-09-20T13:15:57.650Z,45.60
2022-09-20T13:19:19.848Z,44.10
2022-09-20T13:22:29.531Z,44.90
2022-09-20T13:25:33.192Z,44.00
2022-09-20T13:28:44.227Z,44.70
2022-09-20T13:31:46.135Z,45.30
2022-09-20T13:35:05.463Z,48.60
2022-09-20T13:38:09.191Z,45.50
2022-09-20T13:41:11.599Z,43.60
2022-09-20T13:44:17.444Z,46.80
2022-09-20T13:47:31.286Z,43.50
2022-09-20T13:50:35.422Z,47.50
2022-09-20T13:53:41.910Z,44.10
2022-09-20T13:56:44.268Z,46.00
2022-09-20T13:59:46.828Z,44.30
2022-09-20T14:02:49.325Z,44.20
2022-09-20T14:05:59.660Z,47.70
2022-09-20T14:09:10.513Z,44.60
2022-09-20T14:12:13.712Z,45.90
2022-09-20T14:15:15.811Z,48.80
2022-09-20T14:18:19.483Z,49.50
2022-09-20T14:21:26.996Z,50.20
2022-09-20T14:24:34.202Z,50.80
2022-09-20T14:27:42.579Z,54.10
2022-09-20T14:30:46.559Z,57.70
2022-09-20T14:33:54.966Z,58.90
2022-09-20T14:37:09.765Z,59.30
2022-09-20T14:40:32.264Z,58.30
2022-09-20T14:43:36.265Z,59.00
2022-09-20T14:46:38.179Z,56.80
2022-09-20T14:49:45.546Z,57.20
2022-09-20T14:52:47.507Z,55.80
2022-09-20T14:56:04.075Z,58.10
2022-09-20T14:59:13.339Z,58.20
2022-09-20T15:02:16.190Z,55.30
2022-09-20T15:05:19.576Z,56.20
2022-09-20T15:08:21.591Z,56.20
2022-09-20T15:11:23.483Z,57.10
2022-09-20T15:14:25.366Z,59.20
2022-09-20T15:17:27.279Z,57.10
2022-09-20T15:20:29.525Z,57.40
2022-09-20T15:26:38.818Z,55.30
2022-09-20T15:29:40.801Z,54.00
2022-09-20T15:32:46.530Z,56.00
2022-09-20T15:35:48.956Z,53.40
2022-09-20T15:38:54.099Z,53.30
2022-09-20T15:41:56.009Z,54.10
2022-09-20T15:44:57.932Z,53.10
2022-09-20T15:47:59.831Z,54.00
2022-09-20T15:51:02.789Z,55.00
2022-09-20T15:54:06.388Z,57.10
2022-09-20T15:57:08.270Z,55.80
2022-09-20T16:00:10.855Z,57.50
2022-09-20T16:03:12.696Z,56.40
2022-09-20T16:06:14.716Z,58.20
2022-09-20T16:09:17.056Z,57.60
2022-09-20T16:12:19.826Z,57.50
2022-09-20T16:15:21.715Z,58.50
2022-09-20T16:18:23.951Z,57.90
2022-09-20T16:21:26.120Z,59.50
2022-09-20T16:24:30.901Z,59.30
2022-09-20T16:27:33.013Z,59.70
2022-09-20T16:30:34.885Z,58.00
2022-09-20T16:33:36.727Z,61.00
2022-09-20T16:36:38.981Z,59.50
2022-09-20T16:39:40.775Z,60.40
2022-09-20T16:42:42.570Z,60.80
2022-09-20T16:45:44.503Z,60.90
2022-09-20T16:48:47.378Z,61.90
2022-09-20T16:51:49.269Z,60.80
2022-09-20T16:54:51.162Z,60.70
2022-09-20T16:57:53.007Z,60.80
2022-09-20T17:00:55.060Z,61.70
2022-09-20T17:03:57.236Z,62.20
2022-09-20T17:06:59.093Z,61.80
2022-09-20T17:10:00.958Z,63.00
2022-09-20T17:13:02.836Z,63.60
2022-09-20T17:16:07.284Z,65.00
2022-09-20T17:19:13.923Z,66.00
2022-09-20T17:22:15.768Z,66.70
2022-09-20T17:25:17.592Z,66.80
2022-09-20T17:28:19.519Z,67.10
2022-09-20T17:31:23.665Z,67.50
2022-09-20T17:34:26.040Z,67.90
2022-09-20T17:37:27.827Z,67.90
2022-09-20T17:40:29.837Z,68.30
2022-09-20T17:43:31.767Z,68.00
2022-09-20T17:46:34.987Z,68.20
2022-09-20T17:49:36.898Z,68.10
2022-09-20T17:52:38.851Z,68.50
2022-09-20T17:55:40.662Z,68.50
2022-09-20T17:58:43.011Z,68.80
2022-09-20T18:01:47.690Z,70.50
2022-09-20T18:04:49.785Z,72.10
2022-09-20T18:07:52.447Z,72.50
2022-09-20T18:10:58.194Z,71.30
2022-09-20T18:14:03.505Z,72.60
2022-09-20T18:17:05.384Z,71.70
2022-09-20T18:20:07.946Z,71.90
2022-09-20T18:23:09.915Z,71.50
2022-09-20T18:26:23.241Z,72.20
2022-09-20T18:29:25.093Z,72.00
2022-09-20T18:32:27.277Z,71.70
2022-09-20T18:35:29.170Z,72.30
2022-09-20T18:38:31.789Z,72.00
2022-09-20T18:41:37.102Z,72.60
2022-09-20T18:44:39.019Z,73.90
2022-09-20T18:47:40.869Z,73.40
2022-09-20T18:50:42.673Z,74.60
2022-09-20T18:53:44.543Z,75.90
2022-09-20T18:56:50.908Z,75.10
2022-09-20T18:59:55.231Z,75.30
2022-09-20T19:03:12.538Z,75.50
2022-09-20T19:06:16.816Z,75.50
2022-09-20T19:09:28.623Z,74.80
2022-09-20T19:12:39.877Z,76.60
2022-09-20T19:16:02.762Z,77.50
2022-09-20T19:19:23.533Z,78.00
2022-09-20T19:22:48.495Z,77.90
2022-09-20T19:26:01.414Z,77.10
2022-09-20T19:29:04.261Z,77.20
2022-09-20T19:32:06.648Z,77.00
2022-09-20T19:35:25.768Z,77.90
2022-09-20T19:38:45.267Z,78.00
2022-09-20T19:42:12.126Z,77.70
2022-09-20T19:45:21.419Z,77.80
2022-09-20T19:48:37.766Z,78.50
2022-09-20T19:51:41.359Z,78.70
2022-09-20T19:54:46.396Z,77.70
2022-09-20T19:57:48.776Z,79.00
2022-09-20T20:00:51.376Z,78.60
2022-09-20T20:03:54.433Z,78.30
2022-09-20T20:07:24.695Z,78.10
2022-09-20T20:11:02.501Z,77.70
2022-09-20T20:14:17.234Z,77.70
2022-09-20T20:17:32.742Z,77.80
2022-09-20T20:20:45.503Z,77.20
2022-09-20T20:24:02.897Z,77.20
2022-09-20T20:27:04.786Z,78.70
2022-09-20T20:30:07.168Z,79.90
2022-09-20T20:33:16.629Z,79.40
2022-09-20T20:36:18.458Z,78.90
2022-09-20T20:39:20.344Z,78.80
2022-09-20T20:42:22.204Z,78.70
2022-09-20T20:45:24.146Z,78.80
2022-09-20T20:48:25.967Z,78.80
2022-09-20T20:51:27.840Z,79.10
2022-09-20T20:54:29.701Z,79.40
2022-09-20T20:57:31.672Z,79.30
2022-09-20T21:00:33.582Z,79.00
2022-09-20T21:03:35.774Z,79.00
2022-09-20T21:06:39.323Z,78.80
2022-09-20T21:09:41.578Z,78.80
2022-09-20T21:12:43.771Z,79.90
2022-09-20T21:15:45.887Z,80.60
2022-09-20T21:18:48.953Z,80.80
2022-09-20T21:21:50.947Z,80.90
2022-09-20T21:24:52.904Z,80.70
2022-09-20T21:27:54.918Z,81.40
2022-09-20T21:31:01.560Z,81.70
2022-09-20T21:34:08.046Z,81.50
2022-09-20T21:37:10.136Z,81.30
2022-09-20T21:40:12.368Z,81.20
2022-09-20T21:43:14.532Z,80.70
2022-09-20T21:46:18.788Z,81.30
2022-09-20T21:49:20.929Z,81.20
2022-09-20T21:52:22.886Z,80.90
2022-09-20T21:55:24.856Z,80.40
2022-09-20T21:58:28.215Z,82.30
2022-09-20T22:01:32.057Z,82.10
2022-09-20T22:04:34.216Z,82.40
2022-09-20T22:07:36.298Z,82.30
2022-09-20T22:10:38.333Z,81.60
2022-09-20T22:13:45.187Z,80.80
2022-09-20T22:16:48.577Z,80.90
2022-09-20T22:19:50.637Z,81.20
2022-09-20T22:22:52.622Z,80.80
2022-09-20T22:26:03.615Z,80.60
2022-09-20T22:29:06.781Z,80.50
2022-09-20T22:32:08.822Z,81.80
2022-09-20T22:35:10.873Z,82.10
2022-09-20T22:38:12.800Z,81.20
2022-09-20T22:41:16.721Z,80.80
2022-09-20T22:44:18.756Z,80.50
2022-09-20T22:47:20.844Z,80.60
2022-09-20T22:50:22.913Z,81.40
2022-09-20T22:53:24.942Z,81.60
2022-09-20T22:56:29.021Z,82.20
2022-09-20T22:59:31.077Z,82.00
2022-09-20T23:02:35.381Z,81.90
2022-09-20T23:05:39.996Z,81.30
2022-09-20T23:08:42.551Z,81.00
2022-09-20T23:11:44.942Z,81.50
2022-09-20T23:14:46.965Z,80.70
2022-09-20T23:17:48.923Z,81.80
2022-09-20T23:21:01.777Z,83.10
2022-09-20T23:24:06.622Z,81.80
2022-09-20T23:27:08.726Z,82.10
2022-09-20T23:30:11.064Z,81.30
2022-09-20T23:33:13.127Z,80.80
2022-09-20T23:36:16.047Z,81.70
2022-09-20T23:39:18.090Z,80.50
2022-09-20T23:42:20.056Z,80.50
2022-09-20T23:45:22.023Z,80.40
2022-09-20T23:48:24.297Z,80.10
2022-09-20T23:51:26.716Z,80.10
2022-09-20T23:54:28.821Z,80.00
2022-09-20T23:57:30.746Z,80.20
